Time;durP1;ratioP1;P1;durP2;ratioP2;P2;SDS_P1;SDS_P2;PMS_P1;PMS_P2;Temp;Humidity;BMP_temperature;BMP_pressure;BME280_temperature;BME280_humidity;BME280_pressure;Samples;Min_cycle;Max_cycle;Signal;HPM_P1;HPM_P2
2023/03/08 00:03:13;;;;;;;0.35;0.35;;;;;;;-0.86;100.00;99583.91;10404439;28;20140;-80
2023/03/08 00:08:16;;;;;;;0.10;0.10;;;;;;;-1.05;100.00;99594.72;10408836;28;20040;-78
2023/03/08 00:13:18;;;;;;;0.00;0.00;;;;;;;-1.14;100.00;99601.03;10409200;28;20049;-78
2023/03/08 00:18:19;;;;;;;0.10;0.10;;;;;;;-1.01;100.00;99586.50;10411314;28;20432;-78
2023/03/08 00:23:21;;;;;;;0.35;0.35;;;;;;;-1.20;100.00;99607.44;10410878;28;20091;-79
2023/03/08 00:28:23;;;;;;;0.08;0.08;;;;;;;-1.60;100.00;99604.53;10413022;28;20038;-79
2023/03/08 00:33:25;;;;;;;0.28;0.28;;;;;;;-1.98;100.00;99605.88;10415181;28;20079;-78
2023/03/08 00:38:29;;;;;;;0.10;0.10;;;;;;;-1.79;100.00;99602.66;10384534;28;20048;-79
2023/03/08 00:43:31;;;;;;;0.13;0.13;;;;;;;-1.99;100.00;99606.66;10410716;28;20456;-79
2023/03/08 00:48:36;;;;;;;0.00;0.00;;;;;;;-1.52;100.00;99593.97;10411200;28;20135;-78
2023/03/08 00:53:38;;;;;;;0.20;0.20;;;;;;;-1.50;100.00;99587.34;10396542;28;20572;-78
2023/03/08 00:58:40;;;;;;;0.00;0.00;;;;;;;-1.30;100.00;99574.09;10420754;28;20055;-78
2023/03/08 01:03:42;;;;;;;0.65;0.50;;;;;;;-1.21;100.00;99561.09;10401814;28;20053;-77
2023/03/08 01:08:44;;;;;;;2.10;1.90;;;;;;;-1.16;100.00;99557.13;10405437;28;20136;-77
2023/03/08 01:13:47;;;;;;;1.75;1.65;;;;;;;-1.05;100.00;99544.19;10409189;28;20057;-77
2023/03/08 01:18:48;;;;;;;0.90;0.65;;;;;;;-1.23;100.00;99546.63;10411515;28;20042;-78
2023/03/08 01:23:50;;;;;;;0.45;0.40;;;;;;;-1.36;100.00;99543.47;10409215;28;20493;-77
2023/03/08 01:28:52;;;;;;;0.20;0.20;;;;;;;-1.49;100.00;99525.94;10411952;28;20132;-77
2023/03/08 01:33:54;;;;;;;0.45;0.45;;;;;;;-1.29;100.00;99500.03;10406030;28;20088;-77
2023/03/08 01:38:59;;;;;;;0.32;0.32;;;;;;;-1.24;100.00;99481.72;10404564;28;20041;-76
2023/03/08 01:44:02;;;;;;;2.13;1.10;;;;;;;-1.29;100.00;99454.53;10414307;28;20049;-77
2023/03/08 01:49:27;;;;;;;0.30;0.30;;;;;;;-0.50;100.00;99417.00;10419915;28;20088;-77
2023/03/08 01:54:37;;;;;;;0.13;0.13;;;;;;;-0.38;100.00;99420.06;10416744;28;20098;-77
2023/03/08 01:59:38;;;;;;;0.52;0.50;;;;;;;-0.44;100.00;99417.28;10440418;28;20136;-77
2023/03/08 02:04:41;;;;;;;0.10;0.10;;;;;;;-0.16;100.00;99410.91;10404760;28;20552;-77
2023/03/08 02:09:47;;;;;;;0.10;0.10;;;;;;;-0.12;100.00;99397.63;10420451;28;20480;-78
2023/03/08 02:14:49;;;;;;;2.10;1.63;;;;;;;-0.39;100.00;99402.31;10416727;28;20052;-77
2023/03/08 02:20:00;;;;;;;0.30;0.30;;;;;;;-0.26;100.00;99403.72;10419384;28;20052;-77
2023/03/08 02:25:13;;;;;;;0.20;0.20;;;;;;;-0.24;100.00;99384.41;10411131;28;20038;-76
2023/03/08 02:30:21;;;;;;;0.60;0.60;;;;;;;-0.60;100.00;99379.41;10425455;28;20038;-77
2023/03/08 02:35:25;;;;;;;0.52;0.50;;;;;;;-0.46;100.00;99355.59;10422748;28;20041;-76
2023/03/08 02:40:26;;;;;;;0.47;0.47;;;;;;;-0.57;100.00;99362.72;10420403;28;20045;-79
2023/03/08 02:45:28;;;;;;;0.15;0.15;;;;;;;-0.29;100.00;99347.91;10411504;28;20073;-76
2023/03/08 02:50:30;;;;;;;0.47;0.47;;;;;;;-0.06;100.00;99334.59;10419216;28;20049;-76
2023/03/08 02:55:36;;;;;;;0.57;0.57;;;;;;;-0.14;100.00;99337.56;10418880;28;20074;-76
2023/03/08 03:00:42;;;;;;;0.32;0.32;;;;;;;-0.48;100.00;99326.81;10427592;28;20456;-77
2023/03/08 03:05:44;;;;;;;0.40;0.40;;;;;;;-0.32;100.00;99323.34;10428534;28;20030;-77
2023/03/08 03:10:52;;;;;;;0.15;0.15;;;;;;;-0.18;100.00;99309.59;10419771;28;20049;-78
2023/03/08 03:15:53;;;;;;;0.10;0.10;;;;;;;-0.22;100.00;99324.59;10412950;28;20052;-77
2023/03/08 03:21:02;;;;;;;0.68;0.35;;;;;;;-0.22;100.00;99327.13;10429078;28;20049;-77
2023/03/08 03:26:25;;;;;;;0.28;0.28;;;;;;;-0.03;100.00;99321.19;10428828;28;20033;-77
2023/03/08 03:31:29;;;;;;;1.10;0.85;;;;;;;-0.04;100.00;99327.06;10426608;28;20057;-78
2023/03/08 03:36:33;;;;;;;0.20;0.20;;;;;;;-0.07;100.00;99320.19;10394892;28;20533;-79
2023/03/08 03:41:35;;;;;;;0.70;0.35;;;;;;;0.02;100.00;99322.25;10394772;28;20497;-79
2023/03/08 03:46:42;;;;;;;0.52;0.35;;;;;;;-0.08;100.00;99333.66;10411566;28;20049;-79
2023/03/08 03:51:46;;;;;;;0.85;0.85;;;;;;;-0.21;100.00;99322.13;10411408;28;20103;-78
2023/03/08 03:56:59;;;;;;;0.00;0.00;;;;;;;-0.03;100.00;99314.44;10418723;28;20045;-78
2023/03/08 04:02:04;;;;;;;0.08;0.08;;;;;;;-0.04;100.00;99305.13;10414144;28;20050;-78
2023/03/08 04:07:12;;;;;;;0.10;0.10;;;;;;;-0.12;100.00;99301.41;10418676;28;20069;-78
2023/03/08 04:12:21;;;;;;;0.55;0.55;;;;;;;-0.37;100.00;99295.28;10420493;28;20041;-77
2023/03/08 04:17:23;;;;;;;0.20;0.20;;;;;;;0.04;100.00;99281.81;10419688;28;20051;-79
2023/03/08 04:22:27;;;;;;;0.73;0.73;;;;;;;0.03;100.00;99280.09;10411595;28;20072;-77
2023/03/08 04:27:37;;;;;;;;;;;;;;;0.19;100.00;99267.22;10410370;28;20041;-77
2023/03/08 04:32:40;;;;;;;1.55;1.00;;;;;;;0.15;100.00;99280.59;10412294;28;20035;-76
2023/03/08 04:37:44;;;;;;;2.70;1.00;;;;;;;0.09;100.00;99305.66;10417011;28;20072;-77
2023/03/08 04:42:50;;;;;;;1.60;0.70;;;;;;;0.14;100.00;99294.03;10413986;28;20056;-77
2023/03/08 04:47:57;;;;;;;0.10;0.10;;;;;;;0.04;100.00;99286.88;10396205;28;20073;-76
2023/03/08 04:52:59;;;;;;;0.55;0.50;;;;;;;0.22;100.00;99272.44;10410473;28;20481;-77
2023/03/08 04:58:02;;;;;;;0.20;0.20;;;;;;;0.40;100.00;99277.38;10398916;28;20053;-77
2023/03/08 05:03:05;;;;;;;1.48;0.85;;;;;;;0.43;100.00;99276.63;10406969;28;20141;-77
2023/03/08 05:08:07;;;;;;;1.42;0.80;;;;;;;0.40;100.00;99276.53;10410059;28;20041;-79
2023/03/08 05:13:10;;;;;;;1.25;1.10;;;;;;;0.59;100.00;99263.78;10397247;28;20045;-78
2023/03/08 05:18:13;;;;;;;0.00;0.00;;;;;;;0.73;100.00;99271.94;10408805;28;20136;-78
2023/03/08 05:23:15;;;;;;;0.15;0.15;;;;;;;0.51;100.00;99277.81;10401102;28;20139;-78
2023/03/08 05:28:18;;;;;;;0.57;0.57;;;;;;;0.38;100.00;99268.00;10392742;28;20052;-78
2023/03/08 05:33:20;;;;;;;0.30;0.30;;;;;;;0.45;100.00;99247.16;10409779;28;20037;-78
2023/03/08 05:38:22;;;;;;;0.22;0.22;;;;;;;0.48;100.00;99259.97;10408767;28;20104;-78
2023/03/08 05:43:25;;;;;;;0.20;0.20;;;;;;;0.23;100.00;99233.66;10409197;28;20067;-78
2023/03/08 05:48:28;;;;;;;0.60;0.60;;;;;;;0.07;100.00;99233.81;10408578;28;20390;-78
2023/03/08 05:53:30;;;;;;;0.90;0.68;;;;;;;0.34;100.00;99225.59;10408304;28;20128;-78
2023/03/08 05:58:32;;;;;;;0.65;0.65;;;;;;;0.35;100.00;99227.31;10407827;28;20401;-78
2023/03/08 06:03:34;;;;;;;0.17;0.17;;;;;;;0.36;100.00;99209.69;10410095;28;20056;-78
2023/03/08 06:08:36;;;;;;;0.10;0.10;;;;;;;0.35;100.00;99202.00;10409374;28;20041;-79
2023/03/08 06:13:39;;;;;;;0.57;0.38;;;;;;;0.31;100.00;99195.94;10407423;28;20049;-79
2023/03/08 06:18:42;;;;;;;1.58;1.48;;;;;;;0.60;100.00;99174.28;10415503;28;20068;-76
2023/03/08 06:23:47;;;;;;;1.73;1.55;;;;;;;0.38;100.00;99166.66;10414861;28;20145;-77
2023/03/08 06:28:51;;;;;;;1.60;1.02;;;;;;;0.24;100.00;99172.06;10416744;28;20049;-77
2023/03/08 06:33:53;;;;;;;0.47;0.20;;;;;;;0.53;100.00;99157.13;10413032;28;20056;-79
2023/03/08 06:38:58;;;;;;;0.77;0.77;;;;;;;0.45;100.00;99163.56;10395854;28;20049;-79
2023/03/08 06:44:00;;;;;;;1.70;1.30;;;;;;;0.60;100.00;99143.88;10415056;28;20046;-78
2023/03/08 06:49:03;;;;;;;0.70;0.40;;;;;;;0.61;100.00;99145.59;10410558;28;20048;-79
2023/03/08 06:54:06;;;;;;;0.00;0.00;;;;;;;0.68;100.00;99146.66;10408435;28;20050;-79
2023/03/08 06:59:08;;;;;;;0.20;0.20;;;;;;;0.75;100.00;99147.78;10406792;28;20040;-78
2023/03/08 07:04:09;;;;;;;1.17;1.08;;;;;;;0.82;100.00;99144.66;10419107;28;20057;-78
2023/03/08 07:09:12;;;;;;;0.55;0.55;;;;;;;0.82;100.00;99146.34;10416661;28;20041;-78
2023/03/08 07:14:15;;;;;;;0.00;0.00;;;;;;;1.02;100.00;99136.91;10406770;28;20049;-78
2023/03/08 07:19:16;;;;;;;3.53;0.82;;;;;;;0.91;100.00;99154.25;10413670;28;20041;-78
2023/03/08 07:24:18;;;;;;;0.93;0.75;;;;;;;1.03;100.00;99148.78;10412067;28;20489;-79
2023/03/08 07:29:20;;;;;;;0.35;0.22;;;;;;;1.16;100.00;99145.00;10396207;28;20048;-80
2023/03/08 07:34:21;;;;;;;3.72;0.60;;;;;;;1.07;100.00;99155.69;10409893;28;20040;-79
2023/03/08 07:39:23;;;;;;;0.35;0.35;;;;;;;1.13;100.00;99148.31;10421827;28;20048;-79
2023/03/08 07:44:25;;;;;;;0.20;0.20;;;;;;;1.28;100.00;99153.03;10411914;28;20044;-79
2023/03/08 07:49:26;;;;;;;0.35;0.35;;;;;;;1.22;100.00;99142.69;10385057;28;20053;-80
2023/03/08 07:54:28;;;;;;;0.32;0.32;;;;;;;1.29;100.00;99149.69;10411244;28;20056;-80
2023/03/08 07:59:30;;;;;;;1.17;1.08;;;;;;;1.16;100.00;99150.09;10414855;28;20125;-79
2023/03/08 08:04:33;;;;;;;0.20;0.20;;;;;;;1.35;100.00;99134.69;10406803;28;20408;-79
2023/03/08 08:09:36;;;;;;;0.35;0.35;;;;;;;1.32;100.00;99133.72;10412267;28;20137;-79
2023/03/08 08:14:37;;;;;;;2.25;1.10;;;;;;;1.45;100.00;99118.13;10408227;28;20065;-79
2023/03/08 08:19:39;;;;;;;0.20;0.20;;;;;;;1.48;100.00;99130.88;10399341;28;20429;-79
2023/03/08 08:24:41;;;;;;;8.35;2.00;;;;;;;1.58;100.00;99130.41;10411403;28;20072;-79
2023/03/08 08:29:45;;;;;;;0.22;0.22;;;;;;;1.72;100.00;99122.38;10390335;28;20054;-76
2023/03/08 08:34:46;;;;;;;1.67;1.02;;;;;;;1.55;100.00;99140.44;10399990;28;20137;-76
2023/03/08 08:39:48;;;;;;;0.55;0.45;;;;;;;1.73;100.00;99119.03;10398433;28;20052;-77
2023/03/08 08:44:52;;;;;;;7.60;1.10;;;;;;;1.71;100.00;99125.72;10415449;28;20057;-77
2023/03/08 08:49:53;;;;;;;1.17;0.40;;;;;;;1.65;100.00;99125.53;10414681;28;20037;-76
2023/03/08 08:54:56;;;;;;;0.22;0.22;;;;;;;1.96;100.00;99121.44;10415952;28;20042;-77
2023/03/08 08:59:58;;;;;;;0.40;0.28;;;;;;;2.09;100.00;99107.41;10423705;28;20037;-77
2023/03/08 09:05:00;;;;;;;4.95;1.08;;;;;;;2.14;100.00;99106.75;10423299;28;20045;-77
2023/03/08 09:10:02;;;;;;;1.38;0.82;;;;;;;2.45;100.00;99107.69;10400916;28;20042;-77
2023/03/08 09:15:05;;;;;;;1.88;0.90;;;;;;;2.50;100.00;99105.28;10436697;28;20393;-78
2023/03/08 09:20:10;;;;;;;1.08;1.08;;;;;;;2.38;100.00;99080.38;10435006;28;20052;-79
2023/03/08 09:25:13;;;;;;;2.38;1.92;;;;;;;2.51;100.00;99077.34;10426032;28;20073;-78
2023/03/08 09:30:16;;;;;;;0.55;0.55;;;;;;;2.78;100.00;99066.25;10422894;28;20050;-78
2023/03/08 09:35:17;;;;;;;5.07;2.72;;;;;;;2.70;100.00;99052.47;10413525;28;20551;-79
2023/03/08 09:40:25;;;;;;;2.88;1.38;;;;;;;2.57;100.00;99050.41;10404950;28;20049;-78
2023/03/08 09:45:28;;;;;;;0.43;0.43;;;;;;;2.84;100.00;99046.06;10408562;28;20045;-80
2023/03/08 09:50:42;;;;;;;0.20;0.20;;;;;;;2.82;100.00;99051.94;10410910;28;20040;-80
2023/03/08 09:55:54;;;;;;;0.28;0.28;;;;;;;2.95;100.00;99063.28;10404127;28;20068;-80
2023/03/08 10:01:05;;;;;;;2.10;1.30;;;;;;;2.68;100.00;99064.28;10416101;28;20481;-79
2023/03/08 10:06:21;;;;;;;1.08;0.60;;;;;;;2.59;100.00;99074.16;10409762;28;20049;-79
2023/03/08 10:11:32;;;;;;;0.32;0.32;;;;;;;3.08;100.00;99069.56;10411566;28;20061;-79
2023/03/08 10:16:49;;;;;;;0.50;0.45;;;;;;;3.33;100.00;99054.13;10416452;28;20065;-80
2023/03/08 10:21:52;;;;;;;0.30;0.30;;;;;;;3.21;100.00;99070.75;10415994;28;20053;-79
2023/03/08 10:27:01;;;;;;;0.40;0.40;;;;;;;3.12;100.00;99105.31;10423737;28;20045;-78
2023/03/08 10:32:06;;;;;;;1.20;0.52;;;;;;;2.88;100.00;99119.91;10416127;28;20049;-78
2023/03/08 10:37:08;;;;;;;0.00;0.00;;;;;;;3.03;100.00;99105.06;10415792;28;20054;-78
2023/03/08 10:42:15;;;;;;;0.13;0.13;;;;;;;3.30;100.00;99106.66;10426099;28;20041;-79
2023/03/08 10:47:27;;;;;;;0.35;0.35;;;;;;;3.06;100.00;99140.78;10387633;28;20055;-77
2023/03/08 10:52:28;;;;;;;0.28;0.20;;;;;;;3.12;100.00;99135.84;10407047;28;20037;-78
2023/03/08 10:57:31;;;;;;;0.20;0.20;;;;;;;3.09;100.00;99125.59;10404178;28;20041;-78
2023/03/08 11:02:33;;;;;;;0.73;0.55;;;;;;;3.34;100.00;99126.25;10415051;28;20046;-78
2023/03/08 11:07:34;;;;;;;0.43;0.43;;;;;;;3.68;100.00;99114.41;10409297;28;20080;-78
2023/03/08 11:12:36;;;;;;;0.05;0.05;;;;;;;3.41;100.00;99122.19;10413545;28;20065;-78
2023/03/08 11:17:55;;;;;;;0.45;0.25;;;;;;;3.56;100.00;99130.22;10411341;28;20045;-77
2023/03/08 11:23:25;;;;;;;6.70;0.25;;;;;;;3.71;100.00;99111.91;10409082;28;20521;-77
2023/03/08 11:28:43;;;;;;;0.35;0.35;;;;;;;3.52;100.00;99117.38;10402749;28;20045;-76
2023/03/08 11:33:45;;;;;;;1.38;0.95;;;;;;;3.87;100.00;99115.69;10416799;28;20053;-78
2023/03/08 11:38:55;;;;;;;0.32;0.32;;;;;;;4.01;100.00;99126.22;10419563;28;20041;-78
2023/03/08 11:44:26;;;;;;;0.30;0.30;;;;;;;3.44;100.00;99158.78;10407418;28;20080;-77
2023/03/08 11:49:55;;;;;;;0.28;0.28;;;;;;;3.46;100.00;99149.47;10406219;28;20167;-75
2023/03/08 11:55:19;;;;;;;1.00;0.90;;;;;;;3.08;100.00;99162.06;10407683;28;20128;-77
2023/03/08 12:00:24;;;;;;;0.00;0.00;;;;;;;3.01;100.00;99185.59;10412525;28;20052;-77
2023/03/08 12:05:35;;;;;;;0.03;0.00;;;;;;;3.28;100.00;99169.38;10402587;28;20045;-77
2023/03/08 12:10:49;;;;;;;0.30;0.30;;;;;;;3.44;100.00;99160.44;10403603;28;20049;-76
2023/03/08 12:16:18;;;;;;;0.00;0.00;;;;;;;3.93;100.00;99159.16;10405439;28;20103;-76
2023/03/08 12:21:28;;;;;;;0.10;0.10;;;;;;;3.65;100.00;99163.53;10412504;28;20041;-77
2023/03/08 12:26:38;;;;;;;0.28;0.28;;;;;;;3.71;100.00;99165.41;10435932;28;20041;-77
2023/03/08 12:31:44;;;;;;;0.17;0.17;;;;;;;3.60;100.00;99156.63;10412708;28;20081;-77
2023/03/08 12:36:46;;;;;;;0.00;0.00;;;;;;;3.60;100.00;99156.63;10411108;28;20072;-76
2023/03/08 12:41:57;;;;;;;1.55;0.63;;;;;;;3.31;100.00;99169.47;10411974;28;20118;-77
2023/03/08 12:47:15;;;;;;;0.13;0.13;;;;;;;3.24;100.00;99158.25;10420730;28;20042;-77
2023/03/08 12:52:17;;;;;;;0.28;0.28;;;;;;;3.52;100.00;99161.50;10405121;28;20569;-77
2023/03/08 12:57:22;;;;;;;0.00;0.00;;;;;;;4.15;100.00;99163.91;10409963;28;20045;-77
2023/03/08 13:02:32;;;;;;;0.35;0.35;;;;;;;3.39;100.00;99175.59;10411528;28;20053;-77
2023/03/08 13:08:06;;;;;;;0.75;0.50;;;;;;;3.52;100.00;99158.13;10564699;27;20331;-77
2023/03/08 13:13:10;;;;;;;0.57;0.57;;;;;;;3.62;100.00;99165.16;10524846;28;20044;-75
2023/03/08 13:18:32;;;;;;;0.10;0.10;;;;;;;3.64;100.00;99149.13;10535757;28;20398;-74
2023/03/08 13:24:16;;;;;;;2.05;0.93;;;;;;;3.39;100.00;99162.88;10526534;28;20044;-77
2023/03/08 13:29:19;;;;;;;1.88;1.10;;;;;;;3.29;100.00;99176.19;10514908;28;20143;-76
2023/03/08 13:34:27;;;;;;;0.35;0.35;;;;;;;3.39;100.00;99162.88;10519280;28;20044;-76
2023/03/08 13:39:30;;;;;;;1.38;0.35;;;;;;;3.35;100.00;99150.03;10538873;28;20035;-76
2023/03/08 13:44:32;;;;;;;0.25;0.22;;;;;;;3.21;100.00;99147.13;10558180;28;20373;-76
2023/03/08 13:49:36;;;;;;;0.60;0.43;;;;;;;3.23;100.00;99145.47;10516219;28;20056;-81
2023/03/08 13:54:48;;;;;;;0.32;0.30;;;;;;;3.18;100.00;99148.75;10521700;28;20078;-81
2023/03/08 13:59:54;;;;;;;0.15;0.15;;;;;;;3.24;100.00;99139.56;10554064;28;20036;-81
2023/03/08 14:04:56;;;;;;;0.30;0.30;;;;;;;3.48;100.00;99127.47;10549714;28;20040;-81
2023/03/08 14:09:58;;;;;;;0.08;0.08;;;;;;;4.37;100.00;99129.59;10549938;28;20055;-81
2023/03/08 14:15:03;;;;;;;0.08;0.08;;;;;;;4.21;100.00;99138.56;10533244;28;20045;-81
2023/03/08 14:20:19;;;;;;;2.08;0.85;;;;;;;3.54;100.00;99156.47;10506449;28;20419;-80
2023/03/08 14:25:26;;;;;;;0.00;0.00;;;;;;;3.46;100.00;99156.25;10493813;28;20044;-80
2023/03/08 14:30:29;;;;;;;0.10;0.10;;;;;;;3.41;100.00;99155.28;10521398;28;20132;-80
2023/03/08 14:35:36;;;;;;;0.00;0.00;;;;;;;3.41;100.00;99156.13;10529290;28;20094;-79
2023/03/08 14:40:46;;;;;;;0.05;0.05;;;;;;;3.38;100.00;99161.16;10509595;28;20075;-80
2023/03/08 14:45:58;;;;;;;0.00;0.00;;;;;;;3.28;100.00;99159.19;10520816;28;20068;-80
2023/03/08 14:51:20;;;;;;;0.00;0.00;;;;;;;3.32;100.00;99143.16;10512117;28;20079;-79
2023/03/08 14:56:22;;;;;;;1.38;0.65;;;;;;;3.07;100.00;99129.78;10490000;28;20098;-79
2023/03/08 15:01:34;;;;;;;0.00;0.00;;;;;;;3.32;100.00;99107.53;10522413;28;20048;-80
2023/03/08 15:06:38;;;;;;;0.00;0.00;;;;;;;3.17;100.00;99091.03;10499497;28;20040;-80
2023/03/08 15:11:41;;;;;;;0.28;0.28;;;;;;;3.26;100.00;99080.25;10513270;28;20483;-81
2023/03/08 15:16:42;;;;;;;0.00;0.00;;;;;;;3.11;100.00;99056.94;10525709;28;20036;-80
2023/03/08 15:21:47;;;;;;;0.17;0.17;;;;;;;2.93;100.00;99055.63;10519890;28;20222;-81
2023/03/08 15:26:48;;;;;;;0.95;0.45;;;;;;;2.92;100.00;99053.91;10488161;28;20029;-80
2023/03/08 15:31:50;;;;;;;0.00;0.00;;;;;;;2.68;100.00;99064.28;10513338;28;20396;-80
2023/03/08 15:36:53;;;;;;;0.10;0.10;;;;;;;2.74;100.00;99044.09;10480790;28;20043;-81
2023/03/08 15:41:54;;;;;;;0.20;0.20;;;;;;;2.57;100.00;99042.78;10518015;28;20403;-80
2023/03/08 15:46:56;;;;;;;0.10;0.10;;;;;;;2.88;100.00;99030.88;10516014;28;20033;-80
2023/03/08 15:51:57;;;;;;;0.77;0.52;;;;;;;2.86;100.00;99033.38;10497505;28;20052;-81
2023/03/08 15:56:59;;;;;;;0.82;0.80;;;;;;;2.79;100.00;99027.25;10520519;28;20399;-80
2023/03/08 16:02:01;;;;;;;0.00;0.00;;;;;;;3.09;100.00;99023.81;10506511;28;20497;-81
2023/03/08 16:07:03;;;;;;;0.00;0.00;;;;;;;3.14;100.00;99023.94;10504517;28;20054;-81
2023/03/08 16:12:05;;;;;;;0.10;0.10;;;;;;;2.99;100.00;99027.81;10491702;28;20062;-80
2023/03/08 16:17:07;;;;;;;0.32;0.32;;;;;;;2.73;100.00;99016.09;10493018;28;20518;-77
2023/03/08 16:22:09;;;;;;;0.00;0.00;;;;;;;2.65;100.00;98962.47;10482800;28;20071;-77
2023/03/08 16:27:11;;;;;;;0.60;0.50;;;;;;;2.41;100.00;98950.84;10502114;28;20040;-78
2023/03/08 16:32:13;;;;;;;0.10;0.10;;;;;;;2.41;100.00;98937.25;10495723;28;20086;-77
2023/03/08 16:37:17;;;;;;;0.05;0.05;;;;;;;2.40;100.00;98940.63;10501295;28;20449;-78
2023/03/08 16:42:20;;;;;;;1.27;0.88;;;;;;;2.26;100.00;98914.84;10504548;28;20075;-77
2023/03/08 16:47:24;;;;;;;0.08;0.08;;;;;;;2.20;100.00;98902.81;10506287;28;20483;-77
2023/03/08 16:52:25;;;;;;;0.00;0.00;;;;;;;2.22;100.00;98888.50;10487372;28;20122;-76
2023/03/08 16:57:27;;;;;;;0.00;0.00;;;;;;;2.25;100.00;98887.72;10503800;28;20125;-77
2023/03/08 17:02:28;;;;;;;0.00;0.00;;;;;;;2.15;100.00;98874.75;10486157;28;20048;-77
2023/03/08 17:07:30;;;;;;;0.03;0.03;;;;;;;2.17;100.00;98873.13;10517387;28;20047;-78
2023/03/08 17:12:32;;;;;;;1.00;0.90;;;;;;;2.16;100.00;98861.25;10502554;28;20040;-78
2023/03/08 17:17:33;;;;;;;0.15;0.13;;;;;;;1.98;100.00;98848.03;10505396;28;20063;-77
2023/03/08 17:22:35;;;;;;;1.25;0.60;;;;;;;2.12;100.00;98838.25;10486243;28;20476;-77
2023/03/08 17:27:37;;;;;;;0.00;0.00;;;;;;;2.03;100.00;98854.09;10486221;28;20071;-78
2023/03/08 17:32:38;;;;;;;0.30;0.30;;;;;;;2.00;100.00;98857.44;10501503;28;20046;-77
2023/03/08 17:37:40;;;;;;;0.20;0.20;;;;;;;1.88;100.00;98865.56;10497102;28;20048;-78
2023/03/08 17:42:42;;;;;;;0.00;0.00;;;;;;;1.85;100.00;98862.94;10498140;28;20547;-81
2023/03/08 17:47:43;;;;;;;0.15;0.15;;;;;;;1.73;100.00;98865.97;10503359;28;20492;-80
2023/03/08 17:52:45;;;;;;;0.03;0.03;;;;;;;1.71;100.00;98871.84;10496112;28;20041;-80
2023/03/08 17:57:47;;;;;;;0.35;0.32;;;;;;;1.58;100.00;98866.41;10510359;28;20484;-81
2023/03/08 18:02:49;;;;;;;0.00;0.00;;;;;;;1.56;100.00;98865.50;10541400;28;20528;-81
2023/03/08 18:07:50;;;;;;;1.35;0.85;;;;;;;1.53;100.00;98847.63;10481734;28;20047;-82
2023/03/08 18:12:52;;;;;;;0.10;0.10;;;;;;;1.42;100.00;98849.00;10496595;28;20093;-81
2023/03/08 18:17:53;;;;;;;0.55;0.55;;;;;;;1.47;100.00;98837.31;10509211;28;20483;-82
2023/03/08 18:22:55;;;;;;;0.10;0.10;;;;;;;1.35;100.00;98826.81;10504274;28;20127;-80
2023/03/08 18:27:57;;;;;;;1.27;0.75;;;;;;;1.33;100.00;98829.31;10523146;28;20040;-76
2023/03/08 18:32:58;;;;;;;0.00;0.00;;;;;;;1.35;100.00;98826.81;10501682;28;20057;-75
2023/03/08 18:38:01;;;;;;;0.38;0.38;;;;;;;1.15;100.00;98823.69;10514923;28;20040;-77
2023/03/08 18:43:02;;;;;;;0.20;0.20;;;;;;;1.22;100.00;98811.25;10496151;28;20054;-76
2023/03/08 18:48:04;;;;;;;0.10;0.10;;;;;;;1.11;100.00;98802.44;10511286;28;20090;-76
2023/03/08 18:53:05;;;;;;;0.28;0.28;;;;;;;1.08;100.00;98789.69;10506473;28;20105;-77
2023/03/08 18:58:07;;;;;;;2.10;0.82;;;;;;;1.12;100.00;98773.72;10528181;28;20037;-76
2023/03/08 19:03:08;;;;;;;1.23;0.65;;;;;;;1.10;100.00;98755.06;10489646;28;20094;-78
2023/03/08 19:08:10;;;;;;;0.10;0.10;;;;;;;1.06;100.00;98763.41;10515138;28;20403;-77
2023/03/08 19:13:11;;;;;;;0.00;0.00;;;;;;;1.00;100.00;98755.63;10516386;28;20052;-78
2023/03/08 19:18:13;;;;;;;0.10;0.10;;;;;;;1.05;100.00;98742.25;10523492;28;20094;-78
2023/03/08 19:23:14;;;;;;;0.22;0.22;;;;;;;1.06;100.00;98745.66;10506822;28;20331;-77
2023/03/08 19:28:16;;;;;;;0.05;0.05;;;;;;;1.06;100.00;98735.50;10535776;28;20068;-78
2023/03/08 19:33:18;;;;;;;0.00;0.00;;;;;;;1.13;100.00;98744.13;10511887;28;20554;-78
2023/03/08 19:38:32;;;;;;;0.00;0.00;;;;;;;1.08;100.00;98741.50;10513701;28;20028;-77
2023/03/08 19:43:33;;;;;;;0.65;0.65;;;;;;;1.08;100.00;98736.44;10513125;28;20035;-76
2023/03/08 19:48:36;;;;;;;0.55;0.55;;;;;;;1.00;100.00;98727.72;10511676;28;20039;-78
2023/03/08 19:53:37;;;;;;;0.75;0.30;;;;;;;1.08;100.00;98726.28;10499317;28;20109;-77
2023/03/08 19:58:39;;;;;;;0.45;0.45;;;;;;;1.08;100.00;98728.81;10522444;28;20032;-82
2023/03/08 20:03:45;;;;;;;1.08;0.95;;;;;;;1.16;100.00;98729.03;10506139;28;20044;-80
2023/03/08 20:08:47;;;;;;;1.90;1.40;;;;;;;1.03;100.00;98740.47;10486236;28;20074;-81
2023/03/08 20:13:49;;;;;;;0.38;0.38;;;;;;;1.21;100.00;98735.97;10491066;28;20049;-81
2023/03/08 20:18:54;;;;;;;0.30;0.30;;;;;;;1.29;100.00;98735.31;10522445;28;20522;-81
2023/03/08 20:23:58;;;;;;;0.03;0.03;;;;;;;1.14;100.00;98761.97;10496588;28;20063;-76
2023/03/08 20:29:00;;;;;;;0.52;0.30;;;;;;;1.21;100.00;98748.63;10519258;28;20067;-77
2023/03/08 20:34:02;;;;;;;0.15;0.10;;;;;;;1.09;100.00;98748.25;10517399;28;20044;-76
2023/03/08 20:39:06;;;;;;;0.00;0.00;;;;;;;1.21;100.00;98741.03;10484719;28;20101;-76
2023/03/08 20:44:10;;;;;;;0.00;0.00;;;;;;;1.06;100.00;98740.59;10495451;28;20082;-77
2023/03/08 20:49:11;;;;;;;0.00;0.00;;;;;;;1.04;100.00;98732.06;10501294;28;20053;-77
2023/03/08 20:54:13;;;;;;;0.65;0.65;;;;;;;1.07;100.00;98737.25;10476918;28;20105;-76
2023/03/08 20:59:15;;;;;;;0.10;0.10;;;;;;;0.94;100.00;98741.94;10520552;28;20090;-76
2023/03/08 21:04:17;;;;;;;1.23;1.13;;;;;;;1.03;100.00;98716.00;10497460;28;20079;-77
2023/03/08 21:09:18;;;;;;;0.15;0.15;;;;;;;0.88;100.00;98706.25;10507136;28;20082;-77
2023/03/08 21:14:20;;;;;;;1.17;0.80;;;;;;;0.98;100.00;98709.91;10498509;28;20040;-78
2023/03/08 21:19:22;;;;;;;0.00;0.00;;;;;;;0.89;100.00;98692.78;10484981;28;20048;-81
2023/03/08 21:24:24;;;;;;;0.28;0.28;;;;;;;0.92;100.00;98699.59;10520841;28;20054;-81
2023/03/08 21:29:27;;;;;;;0.00;0.00;;;;;;;0.89;100.00;98710.53;10514401;28;20052;-80
2023/03/08 21:34:31;;;;;;;0.00;0.00;;;;;;;0.87;100.00;98702.00;10511775;28;20106;-82
2023/03/08 21:39:32;;;;;;;0.20;0.20;;;;;;;0.81;100.00;98681.53;10469427;28;20066;-81
2023/03/08 21:44:34;;;;;;;4.03;0.52;;;;;;;0.73;100.00;98683.00;10502218;28;20052;-82
2023/03/08 21:49:39;;;;;;;0.00;0.00;;;;;;;0.85;100.00;98677.44;10494581;28;20442;-81
2023/03/08 21:54:41;;;;;;;0.10;0.10;;;;;;;0.82;100.00;98663.00;10510686;28;20041;-81
2023/03/08 21:59:43;;;;;;;0.00;0.00;;;;;;;0.75;100.00;98656.03;10496082;28;20067;-81
2023/03/08 22:04:44;;;;;;;0.08;0.08;;;;;;;0.74;100.00;98644.16;10490905;28;20044;-81
2023/03/08 22:09:46;;;;;;;0.17;0.17;;;;;;;0.80;100.00;98641.78;10515157;28;20050;-81
2023/03/08 22:14:48;;;;;;;2.50;1.50;;;;;;;0.78;100.00;98633.31;10484804;28;20041;-81
2023/03/08 22:19:50;;;;;;;0.30;0.30;;;;;;;0.89;100.00;98624.31;10512430;28;20052;-81
2023/03/08 22:24:51;;;;;;;0.10;0.10;;;;;;;0.90;100.00;98617.56;10533706;28;20927;-82
2023/03/08 22:29:56;;;;;;;2.70;1.88;;;;;;;0.86;100.00;98624.22;10492289;28;20052;-81
2023/03/08 22:34:58;;;;;;;0.45;0.40;;;;;;;0.81;100.00;98614.78;10495668;28;20037;-82
2023/03/08 22:40:00;;;;;;;6.43;3.50;;;;;;;0.83;100.00;98591.19;10494537;28;20044;-81
2023/03/08 22:45:02;;;;;;;0.30;0.30;;;;;;;0.73;100.00;98591.75;10499788;28;20634;-81
2023/03/08 22:50:05;;;;;;;0.17;0.17;;;;;;;0.82;100.00;98586.94;10508614;28;20511;-82
2023/03/08 22:55:07;;;;;;;0.30;0.30;;;;;;;0.81;100.00;98577.63;10480404;28;20049;-81
2023/03/08 23:00:13;;;;;;;3.55;0.75;;;;;;;0.73;100.00;98587.56;10484543;28;20036;-77
2023/03/08 23:05:18;;;;;;;1.13;0.90;;;;;;;0.81;100.00;98576.78;10473456;28;20045;-77
2023/03/08 23:10:20;;;;;;;0.35;0.35;;;;;;;0.82;100.00;98560.75;10533519;28;20068;-78
2023/03/08 23:15:22;;;;;;;0.28;0.28;;;;;;;0.77;100.00;98550.47;10476698;28;20044;-77
2023/03/08 23:20:23;;;;;;;0.00;0.00;;;;;;;0.88;100.00;98546.53;10491585;28;20579;-78
2023/03/08 23:25:25;;;;;;;0.28;0.28;;;;;;;0.84;100.00;98559.97;10502750;28;20247;-77
2023/03/08 23:30:26;;;;;;;0.10;0.10;;;;;;;0.69;100.00;98592.50;10491805;28;20051;-78
2023/03/08 23:35:28;;;;;;;0.30;0.30;;;;;;;0.75;100.00;98580.84;10534382;28;20043;-78